This is the latest recevied weather packets stored in our database for station/object F1ZFG-13. If no packets are shown the sender has not sent any weather packets the latest 10 day(s).
| Time | Temp. | Humidity | Pressure | Rain* | Wind** | Luminosity | Snow |
|---|---|---|---|---|---|---|---|
| 1777347737 | 13.33° C | 53% | 1014.9 hPa | 0 mm | - | - | - |
| 1777344511 | 13.89° C | 49% | 1015.2 hPa | 0 mm | - | - | - |
| 1777341507 | 14.44° C | 46% | 1015.4 hPa | 0 mm | - | - | - |
| 1777338547 | 14.44° C | 45% | 1015.1 hPa | 0 mm | - | - | - |
| 1777335223 | 15° C | 42% | 1015.3 hPa | 0 mm | - | - | - |
| 1777331722 | 15.56° C | 42% | 1015.6 hPa | 0 mm | - | - | - |
| 1777328140 | 16.11° C | 41% | 1016.1 hPa | 0 mm | - | - | - |
| 1777325036 | 16.67° C | 39% | 1016.4 hPa | 0 mm | - | - | - |
| 1777321987 | -17.78° C | 100% | 0 hPa | 0 mm | - | - | - |
| 1777318371 | 19.44° C | 33% | 1016.1 hPa | 0 mm | - | - | - |
| 1777315101 | 21.11° C | 28% | 1015.9 hPa | 0 mm | - | - | - |
| 1777311976 | 22.22° C | 25% | 1015.7 hPa | 0 mm | - | - | - |
| 1777308536 | 23.33° C | 22% | 1015.7 hPa | 0 mm | - | - | - |
| 1777305086 | 23.89° C | 21% | 1016.3 hPa | 0 mm | - | - | - |
| 1777302196 | 23.89° C | 21% | 1016.3 hPa | 0 mm | - | - | - |
| 1777299151 | 23.89° C | 21% | 1017 hPa | 0 mm | - | - | - |
| 1777295624 | 23.33° C | 24% | 1017.3 hPa | 0 mm | - | - | - |
| 1777292249 | 22.78° C | 26% | 1017.8 hPa | 0 mm | - | - | - |
| 1777289201 | 21.11° C | 29% | 1018.6 hPa | 0 mm | - | - | - |
| 1777286213 | 19.44° C | 32% | 1019.1 hPa | 0 mm | - | - | - |
* Rain latest hour (hover to see other rain measurements)
** Current wind speed in m/s (hover to see current wind gust speed)